sensor_id;sensor_type;location;lat;lon;timestamp;P1;durP1;ratioP1;P2;durP2;ratioP2
79124;SDS011;68527;39.470;-0.376;2024-01-06T00:01:45;2.40;;;1.20;;
79124;SDS011;68527;39.470;-0.376;2024-01-06T00:04:10;4.90;;;1.50;;
79124;SDS011;68527;39.470;-0.376;2024-01-06T00:06:36;2.50;;;1.30;;
79124;SDS011;68527;39.470;-0.376;2024-01-06T00:09:04;2.30;;;1.00;;
79124;SDS011;68527;39.470;-0.376;2024-01-06T00:11:30;1.80;;;1.10;;
79124;SDS011;68527;39.470;-0.376;2024-01-06T00:13:55;6.30;;;1.60;;
79124;SDS011;68527;39.470;-0.376;2024-01-06T00:18:48;2.60;;;1.10;;
79124;SDS011;68527;39.470;-0.376;2024-01-06T00:21:16;2.00;;;1.00;;
79124;SDS011;68527;39.470;-0.376;2024-01-06T00:26:09;2.80;;;1.00;;
79124;SDS011;68527;39.470;-0.376;2024-01-06T00:28:35;2.60;;;1.20;;
79124;SDS011;68527;39.470;-0.376;2024-01-06T00:31:01;2.40;;;1.10;;
79124;SDS011;68527;39.470;-0.376;2024-01-06T00:33:26;2.70;;;1.40;;
79124;SDS011;68527;39.470;-0.376;2024-01-06T00:35:54;1.90;;;1.00;;
79124;SDS011;68527;39.470;-0.376;2024-01-06T00:38:21;3.90;;;1.10;;
79124;SDS011;68527;39.470;-0.376;2024-01-06T00:40:46;2.50;;;1.10;;
79124;SDS011;68527;39.470;-0.376;2024-01-06T00:43:12;2.70;;;1.10;;
79124;SDS011;68527;39.470;-0.376;2024-01-06T00:48:05;1.40;;;0.70;;
79124;SDS011;68527;39.470;-0.376;2024-01-06T00:50:31;1.20;;;0.70;;
79124;SDS011;68527;39.470;-0.376;2024-01-06T00:52:56;2.20;;;0.90;;
79124;SDS011;68527;39.470;-0.376;2024-01-06T00:55:23;1.50;;;0.80;;
79124;SDS011;68527;39.470;-0.376;2024-01-06T00:57:50;1.30;;;0.70;;
79124;SDS011;68527;39.470;-0.376;2024-01-06T01:00:16;2.30;;;1.30;;
79124;SDS011;68527;39.470;-0.376;2024-01-06T01:02:42;2.40;;;0.90;;
79124;SDS011;68527;39.470;-0.376;2024-01-06T01:07:34;1.50;;;0.80;;
79124;SDS011;68527;39.470;-0.376;2024-01-06T01:10:00;1.70;;;0.70;;
79124;SDS011;68527;39.470;-0.376;2024-01-06T01:12:26;3.10;;;1.00;;
79124;SDS011;68527;39.470;-0.376;2024-01-06T01:14:54;1.60;;;0.80;;
79124;SDS011;68527;39.470;-0.376;2024-01-06T01:17:20;2.40;;;0.90;;
79124;SDS011;68527;39.470;-0.376;2024-01-06T01:19:46;1.60;;;0.70;;
79124;SDS011;68527;39.470;-0.376;2024-01-06T01:22:11;1.50;;;0.80;;
79124;SDS011;68527;39.470;-0.376;2024-01-06T01:24:40;1.90;;;0.70;;
79124;SDS011;68527;39.470;-0.376;2024-01-06T01:27:06;1.70;;;0.90;;
79124;SDS011;68527;39.470;-0.376;2024-01-06T01:29:31;1.80;;;1.00;;
79124;SDS011;68527;39.470;-0.376;2024-01-06T01:31:57;1.90;;;0.80;;
79124;SDS011;68527;39.470;-0.376;2024-01-06T01:34:24;1.90;;;0.70;;
79124;SDS011;68527;39.470;-0.376;2024-01-06T01:36:50;1.40;;;0.80;;
79124;SDS011;68527;39.470;-0.376;2024-01-06T01:39:15;1.30;;;0.80;;
79124;SDS011;68527;39.470;-0.376;2024-01-06T01:41:42;1.50;;;0.50;;
79124;SDS011;68527;39.470;-0.376;2024-01-06T01:44:09;1.50;;;0.80;;
79124;SDS011;68527;39.470;-0.376;2024-01-06T01:46:34;1.30;;;0.70;;
79124;SDS011;68527;39.470;-0.376;2024-01-06T01:49:00;1.70;;;0.80;;
79124;SDS011;68527;39.470;-0.376;2024-01-06T01:51:27;2.10;;;0.90;;
79124;SDS011;68527;39.470;-0.376;2024-01-06T01:53:57;1.50;;;0.60;;
79124;SDS011;68527;39.470;-0.376;2024-01-06T01:56:23;1.30;;;0.80;;
79124;SDS011;68527;39.470;-0.376;2024-01-06T01:58:50;1.50;;;0.80;;
79124;SDS011;68527;39.470;-0.376;2024-01-06T02:01:17;2.00;;;0.70;;
79124;SDS011;68527;39.470;-0.376;2024-01-06T02:03:43;2.20;;;0.90;;
79124;SDS011;68527;39.470;-0.376;2024-01-06T02:06:09;1.00;;;0.60;;
79124;SDS011;68527;39.470;-0.376;2024-01-06T02:08:35;1.50;;;0.80;;
79124;SDS011;68527;39.470;-0.376;2024-01-06T02:11:04;1.30;;;0.60;;
79124;SDS011;68527;39.470;-0.376;2024-01-06T02:13:36;1.00;;;0.60;;
79124;SDS011;68527;39.470;-0.376;2024-01-06T02:16:04;1.80;;;0.50;;
79124;SDS011;68527;39.470;-0.376;2024-01-06T02:18:31;1.50;;;0.50;;
79124;SDS011;68527;39.470;-0.376;2024-01-06T02:20:57;2.30;;;0.70;;
79124;SDS011;68527;39.470;-0.376;2024-01-06T02:23:26;2.80;;;0.70;;
79124;SDS011;68527;39.470;-0.376;2024-01-06T02:25:53;1.50;;;0.60;;
79124;SDS011;68527;39.470;-0.376;2024-01-06T02:28:19;1.30;;;0.60;;
79124;SDS011;68527;39.470;-0.376;2024-01-06T02:30:45;1.10;;;0.60;;
79124;SDS011;68527;39.470;-0.376;2024-01-06T02:33:12;2.20;;;0.70;;
79124;SDS011;68527;39.470;-0.376;2024-01-06T02:35:37;1.40;;;0.50;;
79124;SDS011;68527;39.470;-0.376;2024-01-06T02:38:05;1.80;;;0.80;;
79124;SDS011;68527;39.470;-0.376;2024-01-06T02:40:31;1.70;;;0.60;;
79124;SDS011;68527;39.470;-0.376;2024-01-06T02:42:59;1.50;;;0.80;;
79124;SDS011;68527;39.470;-0.376;2024-01-06T02:45:24;1.40;;;0.50;;
79124;SDS011;68527;39.470;-0.376;2024-01-06T02:47:50;1.70;;;0.80;;
79124;SDS011;68527;39.470;-0.376;2024-01-06T02:50:16;1.60;;;0.80;;
79124;SDS011;68527;39.470;-0.376;2024-01-06T02:52:43;1.60;;;0.60;;
79124;SDS011;68527;39.470;-0.376;2024-01-06T02:55:10;1.10;;;1.00;;
79124;SDS011;68527;39.470;-0.376;2024-01-06T02:57:35;0.80;;;0.50;;
79124;SDS011;68527;39.470;-0.376;2024-01-06T03:00:04;0.80;;;0.50;;
79124;SDS011;68527;39.470;-0.376;2024-01-06T03:02:30;1.20;;;0.50;;
79124;SDS011;68527;39.470;-0.376;2024-01-06T03:04:56;0.80;;;0.50;;
79124;SDS011;68527;39.470;-0.376;2024-01-06T03:07:21;1.10;;;0.60;;
79124;SDS011;68527;39.470;-0.376;2024-01-06T03:09:48;1.60;;;0.70;;
79124;SDS011;68527;39.470;-0.376;2024-01-06T03:12:14;1.40;;;0.60;;
79124;SDS011;68527;39.470;-0.376;2024-01-06T03:14:40;1.50;;;0.70;;
79124;SDS011;68527;39.470;-0.376;2024-01-06T03:17:05;1.20;;;0.80;;
79124;SDS011;68527;39.470;-0.376;2024-01-06T03:19:32;0.80;;;0.40;;
79124;SDS011;68527;39.470;-0.376;2024-01-06T03:21:58;1.20;;;0.70;;
79124;SDS011;68527;39.470;-0.376;2024-01-06T03:24:24;1.30;;;0.60;;
79124;SDS011;68527;39.470;-0.376;2024-01-06T03:26:51;1.50;;;0.60;;
79124;SDS011;68527;39.470;-0.376;2024-01-06T03:29:17;1.10;;;0.60;;
79124;SDS011;68527;39.470;-0.376;2024-01-06T03:31:43;1.00;;;0.50;;
79124;SDS011;68527;39.470;-0.376;2024-01-06T03:34:09;1.50;;;0.80;;
79124;SDS011;68527;39.470;-0.376;2024-01-06T03:36:36;0.80;;;0.50;;
79124;SDS011;68527;39.470;-0.376;2024-01-06T03:39:03;1.30;;;0.50;;
79124;SDS011;68527;39.470;-0.376;2024-01-06T03:41:29;1.20;;;0.50;;
79124;SDS011;68527;39.470;-0.376;2024-01-06T03:43:55;0.70;;;0.40;;
79124;SDS011;68527;39.470;-0.376;2024-01-06T03:46:21;1.30;;;0.50;;
79124;SDS011;68527;39.470;-0.376;2024-01-06T03:48:49;0.90;;;0.50;;
79124;SDS011;68527;39.470;-0.376;2024-01-06T03:51:14;0.70;;;0.40;;
79124;SDS011;68527;39.470;-0.376;2024-01-06T03:53:40;0.80;;;0.50;;
79124;SDS011;68527;39.470;-0.376;2024-01-06T03:56:06;0.60;;;0.40;;
79124;SDS011;68527;39.470;-0.376;2024-01-06T03:58:33;1.10;;;0.60;;
79124;SDS011;68527;39.470;-0.376;2024-01-06T04:00:59;1.30;;;0.50;;
79124;SDS011;68527;39.470;-0.376;2024-01-06T04:03:25;1.30;;;0.50;;
79124;SDS011;68527;39.470;-0.376;2024-01-06T04:05:50;0.70;;;0.40;;
79124;SDS011;68527;39.470;-0.376;2024-01-06T04:08:18;1.30;;;0.70;;
79124;SDS011;68527;39.470;-0.376;2024-01-06T04:10:44;0.60;;;0.40;;
79124;SDS011;68527;39.470;-0.376;2024-01-06T04:13:10;0.80;;;0.40;;
79124;SDS011;68527;39.470;-0.376;2024-01-06T04:15:38;1.70;;;0.50;;
79124;SDS011;68527;39.470;-0.376;2024-01-06T04:18:04;0.80;;;0.50;;
79124;SDS011;68527;39.470;-0.376;2024-01-06T04:20:31;1.50;;;0.60;;
79124;SDS011;68527;39.470;-0.376;2024-01-06T04:22:57;1.50;;;0.60;;
79124;SDS011;68527;39.470;-0.376;2024-01-06T04:25:24;0.70;;;0.40;;
79124;SDS011;68527;39.470;-0.376;2024-01-06T04:27:49;0.60;;;0.40;;
79124;SDS011;68527;39.470;-0.376;2024-01-06T04:30:15;0.60;;;0.30;;
79124;SDS011;68527;39.470;-0.376;2024-01-06T04:32:41;0.50;;;0.30;;
79124;SDS011;68527;39.470;-0.376;2024-01-06T04:35:10;1.30;;;0.50;;
79124;SDS011;68527;39.470;-0.376;2024-01-06T04:37:36;0.90;;;0.50;;
79124;SDS011;68527;39.470;-0.376;2024-01-06T04:40:01;1.60;;;0.70;;
79124;SDS011;68527;39.470;-0.376;2024-01-06T04:42:29;1.10;;;0.50;;
79124;SDS011;68527;39.470;-0.376;2024-01-06T04:44:54;1.00;;;0.50;;
79124;SDS011;68527;39.470;-0.376;2024-01-06T04:47:20;0.80;;;0.40;;
79124;SDS011;68527;39.470;-0.376;2024-01-06T04:49:45;1.00;;;0.50;;
79124;SDS011;68527;39.470;-0.376;2024-01-06T04:52:12;0.70;;;0.60;;
79124;SDS011;68527;39.470;-0.376;2024-01-06T04:54:38;1.00;;;0.70;;
79124;SDS011;68527;39.470;-0.376;2024-01-06T04:57:04;1.10;;;0.50;;
79124;SDS011;68527;39.470;-0.376;2024-01-06T04:59:30;1.20;;;0.60;;
79124;SDS011;68527;39.470;-0.376;2024-01-06T05:01:58;1.50;;;0.50;;
79124;SDS011;68527;39.470;-0.376;2024-01-06T05:04:24;1.00;;;0.50;;
79124;SDS011;68527;39.470;-0.376;2024-01-06T05:06:52;1.10;;;0.40;;
79124;SDS011;68527;39.470;-0.376;2024-01-06T05:09:20;1.40;;;0.40;;
79124;SDS011;68527;39.470;-0.376;2024-01-06T05:11:46;1.00;;;0.80;;
79124;SDS011;68527;39.470;-0.376;2024-01-06T05:14:11;0.80;;;0.50;;
79124;SDS011;68527;39.470;-0.376;2024-01-06T05:16:37;0.70;;;0.60;;
79124;SDS011;68527;39.470;-0.376;2024-01-06T05:19:05;0.90;;;0.40;;
79124;SDS011;68527;39.470;-0.376;2024-01-06T05:21:31;0.80;;;0.40;;
79124;SDS011;68527;39.470;-0.376;2024-01-06T05:23:56;1.00;;;0.50;;
79124;SDS011;68527;39.470;-0.376;2024-01-06T05:26:22;1.60;;;0.80;;
79124;SDS011;68527;39.470;-0.376;2024-01-06T05:28:49;0.90;;;0.50;;
79124;SDS011;68527;39.470;-0.376;2024-01-06T05:31:14;0.70;;;0.40;;
79124;SDS011;68527;39.470;-0.376;2024-01-06T05:33:40;1.00;;;0.40;;
79124;SDS011;68527;39.470;-0.376;2024-01-06T05:36:06;0.70;;;0.40;;
79124;SDS011;68527;39.470;-0.376;2024-01-06T05:38:34;0.90;;;0.40;;
79124;SDS011;68527;39.470;-0.376;2024-01-06T05:40:59;0.70;;;0.50;;
79124;SDS011;68527;39.470;-0.376;2024-01-06T05:43:25;0.70;;;0.40;;
79124;SDS011;68527;39.470;-0.376;2024-01-06T05:45:51;1.20;;;0.30;;
79124;SDS011;68527;39.470;-0.376;2024-01-06T05:48:18;0.60;;;0.40;;
79124;SDS011;68527;39.470;-0.376;2024-01-06T05:50:43;0.50;;;0.40;;
79124;SDS011;68527;39.470;-0.376;2024-01-06T05:53:09;0.60;;;0.30;;
79124;SDS011;68527;39.470;-0.376;2024-01-06T05:55:35;0.80;;;0.40;;
79124;SDS011;68527;39.470;-0.376;2024-01-06T06:00:28;1.00;;;0.30;;
79124;SDS011;68527;39.470;-0.376;2024-01-06T06:02:56;1.00;;;0.50;;
79124;SDS011;68527;39.470;-0.376;2024-01-06T06:05:24;0.80;;;0.40;;
79124;SDS011;68527;39.470;-0.376;2024-01-06T06:07:51;0.80;;;0.30;;
79124;SDS011;68527;39.470;-0.376;2024-01-06T06:10:17;0.50;;;0.30;;
79124;SDS011;68527;39.470;-0.376;2024-01-06T06:12:47;0.90;;;0.50;;
79124;SDS011;68527;39.470;-0.376;2024-01-06T06:15:12;0.50;;;0.40;;
79124;SDS011;68527;39.470;-0.376;2024-01-06T06:17:38;0.60;;;0.30;;
79124;SDS011;68527;39.470;-0.376;2024-01-06T06:20:05;0.60;;;0.30;;
79124;SDS011;68527;39.470;-0.376;2024-01-06T06:22:35;0.80;;;0.40;;
79124;SDS011;68527;39.470;-0.376;2024-01-06T06:25:00;0.40;;;0.30;;
79124;SDS011;68527;39.470;-0.376;2024-01-06T06:27:26;0.80;;;0.40;;
79124;SDS011;68527;39.470;-0.376;2024-01-06T06:29:52;0.80;;;0.60;;
79124;SDS011;68527;39.470;-0.376;2024-01-06T06:32:20;1.00;;;0.40;;
79124;SDS011;68527;39.470;-0.376;2024-01-06T06:34:46;0.40;;;0.20;;
79124;SDS011;68527;39.470;-0.376;2024-01-06T06:37:11;0.80;;;0.40;;
79124;SDS011;68527;39.470;-0.376;2024-01-06T06:39:37;1.80;;;0.40;;
79124;SDS011;68527;39.470;-0.376;2024-01-06T06:42:05;0.70;;;0.40;;
79124;SDS011;68527;39.470;-0.376;2024-01-06T06:44:30;0.70;;;0.40;;
79124;SDS011;68527;39.470;-0.376;2024-01-06T06:46:56;0.60;;;0.40;;
79124;SDS011;68527;39.470;-0.376;2024-01-06T06:51:50;0.90;;;0.30;;
79124;SDS011;68527;39.470;-0.376;2024-01-06T06:54:16;1.00;;;0.30;;
79124;SDS011;68527;39.470;-0.376;2024-01-06T06:56:42;0.90;;;0.40;;
79124;SDS011;68527;39.470;-0.376;2024-01-06T06:59:08;1.10;;;0.30;;
79124;SDS011;68527;39.470;-0.376;2024-01-06T07:01:35;3.10;;;0.90;;
79124;SDS011;68527;39.470;-0.376;2024-01-06T07:04:02;3.80;;;0.70;;
79124;SDS011;68527;39.470;-0.376;2024-01-06T07:06:28;2.70;;;0.50;;
79124;SDS011;68527;39.470;-0.376;2024-01-06T07:08:56;2.80;;;0.60;;
79124;SDS011;68527;39.470;-0.376;2024-01-06T07:11:22;5.20;;;0.70;;
79124;SDS011;68527;39.470;-0.376;2024-01-06T07:13:49;5.10;;;0.80;;
79124;SDS011;68527;39.470;-0.376;2024-01-06T07:16:15;7.40;;;0.70;;
79124;SDS011;68527;39.470;-0.376;2024-01-06T07:21:07;2.90;;;0.60;;
79124;SDS011;68527;39.470;-0.376;2024-01-06T07:23:33;3.00;;;0.60;;
79124;SDS011;68527;39.470;-0.376;2024-01-06T07:25:59;2.20;;;0.70;;
79124;SDS011;68527;39.470;-0.376;2024-01-06T07:28:27;6.10;;;0.90;;
79124;SDS011;68527;39.470;-0.376;2024-01-06T07:30:52;4.30;;;0.90;;
79124;SDS011;68527;39.470;-0.376;2024-01-06T07:33:18;1.40;;;0.50;;
79124;SDS011;68527;39.470;-0.376;2024-01-06T07:35:44;3.00;;;0.70;;
79124;SDS011;68527;39.470;-0.376;2024-01-06T07:38:12;5.20;;;0.70;;
79124;SDS011;68527;39.470;-0.376;2024-01-06T07:40:38;5.00;;;0.90;;
79124;SDS011;68527;39.470;-0.376;2024-01-06T07:43:04;3.10;;;0.70;;
79124;SDS011;68527;39.470;-0.376;2024-01-06T07:45:30;3.70;;;0.40;;
79124;SDS011;68527;39.470;-0.376;2024-01-06T07:47:58;3.40;;;0.70;;
79124;SDS011;68527;39.470;-0.376;2024-01-06T07:50:24;3.90;;;0.80;;
79124;SDS011;68527;39.470;-0.376;2024-01-06T07:52:50;2.70;;;0.70;;
79124;SDS011;68527;39.470;-0.376;2024-01-06T07:55:18;3.60;;;0.60;;
79124;SDS011;68527;39.470;-0.376;2024-01-06T07:57:44;1.00;;;0.40;;
79124;SDS011;68527;39.470;-0.376;2024-01-06T08:00:10;4.10;;;0.70;;
79124;SDS011;68527;39.470;-0.376;2024-01-06T08:02:41;3.00;;;0.70;;
79124;SDS011;68527;39.470;-0.376;2024-01-06T08:05:06;7.70;;;0.70;;
79124;SDS011;68527;39.470;-0.376;2024-01-06T08:07:32;3.20;;;0.70;;
79124;SDS011;68527;39.470;-0.376;2024-01-06T08:09:58;7.20;;;0.60;;
79124;SDS011;68527;39.470;-0.376;2024-01-06T08:12:25;2.80;;;0.50;;
79124;SDS011;68527;39.470;-0.376;2024-01-06T08:14:51;5.30;;;0.70;;
79124;SDS011;68527;39.470;-0.376;2024-01-06T08:17:17;3.80;;;0.80;;
79124;SDS011;68527;39.470;-0.376;2024-01-06T08:19:43;2.80;;;0.40;;
79124;SDS011;68527;39.470;-0.376;2024-01-06T08:22:10;2.00;;;0.60;;
79124;SDS011;68527;39.470;-0.376;2024-01-06T08:24:36;4.50;;;1.40;;
79124;SDS011;68527;39.470;-0.376;2024-01-06T08:27:01;5.80;;;0.70;;
79124;SDS011;68527;39.470;-0.376;2024-01-06T08:31:54;7.70;;;0.80;;
79124;SDS011;68527;39.470;-0.376;2024-01-06T08:34:20;3.30;;;0.60;;
79124;SDS011;68527;39.470;-0.376;2024-01-06T08:36:45;5.90;;;0.80;;
79124;SDS011;68527;39.470;-0.376;2024-01-06T08:39:11;4.60;;;0.80;;
79124;SDS011;68527;39.470;-0.376;2024-01-06T08:41:38;4.40;;;1.20;;
79124;SDS011;68527;39.470;-0.376;2024-01-06T08:44:03;9.00;;;1.30;;
79124;SDS011;68527;39.470;-0.376;2024-01-06T08:46:29;2.70;;;0.70;;
79124;SDS011;68527;39.470;-0.376;2024-01-06T08:48:55;4.50;;;0.90;;
79124;SDS011;68527;39.470;-0.376;2024-01-06T08:51:22;3.40;;;0.80;;
79124;SDS011;68527;39.470;-0.376;2024-01-06T08:53:49;3.00;;;0.70;;
79124;SDS011;68527;39.470;-0.376;2024-01-06T08:56:15;1.90;;;0.50;;
79124;SDS011;68527;39.470;-0.376;2024-01-06T08:58:44;4.00;;;0.60;;
79124;SDS011;68527;39.470;-0.376;2024-01-06T09:01:10;4.30;;;0.70;;
79124;SDS011;68527;39.470;-0.376;2024-01-06T09:03:36;6.80;;;0.90;;
79124;SDS011;68527;39.470;-0.376;2024-01-06T09:06:01;2.70;;;0.60;;
79124;SDS011;68527;39.470;-0.376;2024-01-06T09:08:28;5.00;;;0.60;;
79124;SDS011;68527;39.470;-0.376;2024-01-06T09:10:54;5.30;;;0.80;;
79124;SDS011;68527;39.470;-0.376;2024-01-06T09:13:23;3.00;;;0.80;;
79124;SDS011;68527;39.470;-0.376;2024-01-06T09:15:51;6.60;;;0.90;;
79124;SDS011;68527;39.470;-0.376;2024-01-06T09:18:17;2.60;;;0.60;;
79124;SDS011;68527;39.470;-0.376;2024-01-06T09:20:43;3.60;;;0.70;;
79124;SDS011;68527;39.470;-0.376;2024-01-06T09:23:08;5.40;;;0.70;;
79124;SDS011;68527;39.470;-0.376;2024-01-06T09:25:36;3.60;;;0.90;;
79124;SDS011;68527;39.470;-0.376;2024-01-06T09:28:02;4.70;;;0.70;;
79124;SDS011;68527;39.470;-0.376;2024-01-06T09:30:28;3.30;;;0.50;;
79124;SDS011;68527;39.470;-0.376;2024-01-06T09:35:21;2.50;;;0.40;;
79124;SDS011;68527;39.470;-0.376;2024-01-06T09:37:48;2.30;;;0.50;;
79124;SDS011;68527;39.470;-0.376;2024-01-06T09:40:14;4.30;;;0.50;;
79124;SDS011;68527;39.470;-0.376;2024-01-06T09:42:48;7.10;;;0.50;;
79124;SDS011;68527;39.470;-0.376;2024-01-06T09:45:14;3.00;;;0.70;;
79124;SDS011;68527;39.470;-0.376;2024-01-06T09:47:40;3.50;;;0.70;;
79124;SDS011;68527;39.470;-0.376;2024-01-06T09:50:10;5.20;;;0.80;;
79124;SDS011;68527;39.470;-0.376;2024-01-06T09:52:41;4.10;;;0.60;;
79124;SDS011;68527;39.470;-0.376;2024-01-06T09:55:12;5.20;;;0.90;;
79124;SDS011;68527;39.470;-0.376;2024-01-06T09:57:38;5.70;;;0.90;;
79124;SDS011;68527;39.470;-0.376;2024-01-06T10:00:04;5.50;;;0.80;;
79124;SDS011;68527;39.470;-0.376;2024-01-06T10:02:32;4.30;;;0.70;;
79124;SDS011;68527;39.470;-0.376;2024-01-06T10:04:58;3.40;;;0.50;;
79124;SDS011;68527;39.470;-0.376;2024-01-06T10:07:25;4.40;;;0.80;;
79124;SDS011;68527;39.470;-0.376;2024-01-06T10:09:56;4.70;;;0.70;;
79124;SDS011;68527;39.470;-0.376;2024-01-06T10:12:25;4.40;;;0.70;;
79124;SDS011;68527;39.470;-0.376;2024-01-06T10:14:53;5.00;;;0.70;;
79124;SDS011;68527;39.470;-0.376;2024-01-06T10:17:19;1.60;;;0.60;;
79124;SDS011;68527;39.470;-0.376;2024-01-06T10:19:45;3.80;;;0.80;;
79124;SDS011;68527;39.470;-0.376;2024-01-06T10:22:11;2.40;;;0.60;;
79124;SDS011;68527;39.470;-0.376;2024-01-06T10:24:38;6.30;;;0.80;;
79124;SDS011;68527;39.470;-0.376;2024-01-06T10:27:03;2.80;;;0.60;;
79124;SDS011;68527;39.470;-0.376;2024-01-06T10:29:29;9.40;;;0.90;;
79124;SDS011;68527;39.470;-0.376;2024-01-06T10:31:55;5.20;;;0.90;;
79124;SDS011;68527;39.470;-0.376;2024-01-06T10:34:22;3.70;;;1.10;;
79124;SDS011;68527;39.470;-0.376;2024-01-06T10:36:49;9.10;;;0.80;;
79124;SDS011;68527;39.470;-0.376;2024-01-06T10:39:14;4.10;;;0.70;;
79124;SDS011;68527;39.470;-0.376;2024-01-06T10:41:43;3.10;;;0.60;;
79124;SDS011;68527;39.470;-0.376;2024-01-06T10:44:09;4.10;;;0.70;;
79124;SDS011;68527;39.470;-0.376;2024-01-06T10:46:36;3.20;;;0.50;;
79124;SDS011;68527;39.470;-0.376;2024-01-06T10:49:05;4.40;;;0.60;;
79124;SDS011;68527;39.470;-0.376;2024-01-06T10:51:38;3.90;;;0.70;;
79124;SDS011;68527;39.470;-0.376;2024-01-06T10:54:06;5.20;;;0.80;;
79124;SDS011;68527;39.470;-0.376;2024-01-06T10:56:38;3.40;;;0.80;;
79124;SDS011;68527;39.470;-0.376;2024-01-06T10:59:05;2.90;;;0.60;;
79124;SDS011;68527;39.470;-0.376;2024-01-06T11:01:33;2.60;;;0.50;;
79124;SDS011;68527;39.470;-0.376;2024-01-06T11:06:26;6.90;;;0.80;;
79124;SDS011;68527;39.470;-0.376;2024-01-06T11:11:43;3.60;;;0.70;;
79124;SDS011;68527;39.470;-0.376;2024-01-06T11:14:22;6.60;;;0.90;;
79124;SDS011;68527;39.470;-0.376;2024-01-06T11:16:51;4.20;;;0.70;;
79124;SDS011;68527;39.470;-0.376;2024-01-06T11:24:54;4.10;;;1.10;;
79124;SDS011;68527;39.470;-0.376;2024-01-06T11:29:54;2.00;;;0.50;;
79124;SDS011;68527;39.470;-0.376;2024-01-06T11:34:52;2.00;;;0.90;;
79124;SDS011;68527;39.470;-0.376;2024-01-06T11:38:03;3.50;;;0.60;;
79124;SDS011;68527;39.470;-0.376;2024-01-06T11:42:47;5.00;;;0.80;;
79124;SDS011;68527;39.470;-0.376;2024-01-06T11:45:13;4.40;;;0.60;;
79124;SDS011;68527;39.470;-0.376;2024-01-06T11:47:40;4.20;;;0.70;;
79124;SDS011;68527;39.470;-0.376;2024-01-06T11:50:14;3.10;;;0.90;;
79124;SDS011;68527;39.470;-0.376;2024-01-06T11:52:42;2.90;;;0.50;;
79124;SDS011;68527;39.470;-0.376;2024-01-06T11:55:07;3.50;;;0.70;;
79124;SDS011;68527;39.470;-0.376;2024-01-06T11:57:35;2.20;;;0.50;;
79124;SDS011;68527;39.470;-0.376;2024-01-06T12:00:01;4.00;;;1.00;;
79124;SDS011;68527;39.470;-0.376;2024-01-06T12:02:29;4.70;;;0.80;;
79124;SDS011;68527;39.470;-0.376;2024-01-06T12:04:57;6.50;;;1.70;;
79124;SDS011;68527;39.470;-0.376;2024-01-06T12:07:22;6.20;;;1.10;;
79124;SDS011;68527;39.470;-0.376;2024-01-06T12:09:49;4.30;;;0.70;;
79124;SDS011;68527;39.470;-0.376;2024-01-06T12:12:16;2.80;;;1.00;;
79124;SDS011;68527;39.470;-0.376;2024-01-06T12:14:43;4.90;;;0.90;;
79124;SDS011;68527;39.470;-0.376;2024-01-06T12:17:10;7.70;;;0.90;;
79124;SDS011;68527;39.470;-0.376;2024-01-06T12:19:38;7.40;;;1.00;;
79124;SDS011;68527;39.470;-0.376;2024-01-06T12:22:05;5.10;;;1.30;;
79124;SDS011;68527;39.470;-0.376;2024-01-06T12:24:32;8.20;;;1.60;;
79124;SDS011;68527;39.470;-0.376;2024-01-06T12:26:58;6.70;;;1.00;;
79124;SDS011;68527;39.470;-0.376;2024-01-06T12:29:26;6.20;;;1.40;;
79124;SDS011;68527;39.470;-0.376;2024-01-06T12:31:58;15.20;;;2.50;;
79124;SDS011;68527;39.470;-0.376;2024-01-06T12:36:55;6.80;;;2.90;;
79124;SDS011;68527;39.470;-0.376;2024-01-06T12:39:20;10.10;;;2.80;;
79124;SDS011;68527;39.470;-0.376;2024-01-06T12:41:47;10.90;;;2.90;;
79124;SDS011;68527;39.470;-0.376;2024-01-06T12:44:13;10.50;;;3.60;;
79124;SDS011;68527;39.470;-0.376;2024-01-06T12:46:38;7.90;;;4.10;;
79124;SDS011;68527;39.470;-0.376;2024-01-06T12:49:04;13.20;;;4.20;;
79124;SDS011;68527;39.470;-0.376;2024-01-06T12:51:32;10.10;;;4.30;;
79124;SDS011;68527;39.470;-0.376;2024-01-06T12:53:58;8.90;;;4.70;;
79124;SDS011;68527;39.470;-0.376;2024-01-06T12:56:23;12.90;;;4.80;;
79124;SDS011;68527;39.470;-0.376;2024-01-06T12:58:49;11.10;;;4.70;;
79124;SDS011;68527;39.470;-0.376;2024-01-06T13:01:16;12.70;;;4.90;;
79124;SDS011;68527;39.470;-0.376;2024-01-06T13:03:42;11.80;;;4.80;;
79124;SDS011;68527;39.470;-0.376;2024-01-06T13:06:09;12.40;;;4.80;;
79124;SDS011;68527;39.470;-0.376;2024-01-06T13:08:37;7.50;;;4.10;;
79124;SDS011;68527;39.470;-0.376;2024-01-06T13:11:02;7.60;;;4.10;;
79124;SDS011;68527;39.470;-0.376;2024-01-06T13:13:28;10.90;;;4.80;;
79124;SDS011;68527;39.470;-0.376;2024-01-06T13:15:59;12.40;;;4.70;;
79124;SDS011;68527;39.470;-0.376;2024-01-06T13:18:26;11.20;;;4.30;;
79124;SDS011;68527;39.470;-0.376;2024-01-06T13:20:53;10.60;;;4.30;;
79124;SDS011;68527;39.470;-0.376;2024-01-06T13:23:20;9.80;;;4.50;;
79124;SDS011;68527;39.470;-0.376;2024-01-06T13:25:46;8.30;;;4.70;;
79124;SDS011;68527;39.470;-0.376;2024-01-06T13:28:12;11.30;;;4.10;;
79124;SDS011;68527;39.470;-0.376;2024-01-06T13:30:37;10.80;;;4.00;;
79124;SDS011;68527;39.470;-0.376;2024-01-06T13:33:05;11.30;;;4.10;;
79124;SDS011;68527;39.470;-0.376;2024-01-06T13:35:31;9.70;;;3.60;;
79124;SDS011;68527;39.470;-0.376;2024-01-06T13:37:56;8.10;;;3.60;;
79124;SDS011;68527;39.470;-0.376;2024-01-06T13:40:22;8.30;;;4.30;;
79124;SDS011;68527;39.470;-0.376;2024-01-06T13:42:50;7.90;;;3.10;;
79124;SDS011;68527;39.470;-0.376;2024-01-06T13:45:18;13.10;;;3.30;;
79124;SDS011;68527;39.470;-0.376;2024-01-06T13:47:43;11.20;;;3.60;;
79124;SDS011;68527;39.470;-0.376;2024-01-06T13:50:12;7.90;;;3.10;;
79124;SDS011;68527;39.470;-0.376;2024-01-06T13:52:38;8.10;;;3.00;;
79124;SDS011;68527;39.470;-0.376;2024-01-06T13:55:05;9.00;;;3.10;;
79124;SDS011;68527;39.470;-0.376;2024-01-06T13:57:33;6.20;;;3.20;;
79124;SDS011;68527;39.470;-0.376;2024-01-06T13:59:59;9.10;;;3.10;;
79124;SDS011;68527;39.470;-0.376;2024-01-06T14:02:25;9.80;;;2.80;;
79124;SDS011;68527;39.470;-0.376;2024-01-06T14:04:51;12.50;;;2.70;;
79124;SDS011;68527;39.470;-0.376;2024-01-06T14:07:18;7.40;;;3.00;;
79124;SDS011;68527;39.470;-0.376;2024-01-06T14:09:46;13.50;;;3.20;;
79124;SDS011;68527;39.470;-0.376;2024-01-06T14:12:12;8.00;;;2.60;;
79124;SDS011;68527;39.470;-0.376;2024-01-06T14:14:40;9.20;;;2.60;;
79124;SDS011;68527;39.470;-0.376;2024-01-06T14:17:08;5.10;;;2.20;;
79124;SDS011;68527;39.470;-0.376;2024-01-06T14:19:34;8.50;;;3.10;;
79124;SDS011;68527;39.470;-0.376;2024-01-06T14:22:00;10.70;;;2.90;;
79124;SDS011;68527;39.470;-0.376;2024-01-06T14:24:29;6.70;;;2.30;;
79124;SDS011;68527;39.470;-0.376;2024-01-06T14:26:56;9.20;;;2.90;;
79124;SDS011;68527;39.470;-0.376;2024-01-06T14:29:23;6.90;;;2.50;;
79124;SDS011;68527;39.470;-0.376;2024-01-06T14:31:49;7.60;;;2.10;;
79124;SDS011;68527;39.470;-0.376;2024-01-06T14:34:15;7.80;;;2.30;;
79124;SDS011;68527;39.470;-0.376;2024-01-06T14:36:41;6.00;;;2.40;;
79124;SDS011;68527;39.470;-0.376;2024-01-06T14:39:17;9.30;;;2.20;;
79124;SDS011;68527;39.470;-0.376;2024-01-06T14:41:46;5.50;;;2.30;;
79124;SDS011;68527;39.470;-0.376;2024-01-06T14:44:13;7.80;;;2.10;;
79124;SDS011;68527;39.470;-0.376;2024-01-06T14:46:39;5.90;;;2.00;;
79124;SDS011;68527;39.470;-0.376;2024-01-06T14:49:06;5.60;;;1.80;;
79124;SDS011;68527;39.470;-0.376;2024-01-06T14:51:32;8.50;;;1.80;;
79124;SDS011;68527;39.470;-0.376;2024-01-06T14:53:59;5.70;;;2.00;;
79124;SDS011;68527;39.470;-0.376;2024-01-06T14:56:26;6.50;;;2.00;;
79124;SDS011;68527;39.470;-0.376;2024-01-06T14:58:52;6.20;;;1.80;;
79124;SDS011;68527;39.470;-0.376;2024-01-06T15:01:17;7.90;;;1.70;;
79124;SDS011;68527;39.470;-0.376;2024-01-06T15:03:44;7.50;;;1.50;;
79124;SDS011;68527;39.470;-0.376;2024-01-06T15:06:10;13.10;;;2.30;;
79124;SDS011;68527;39.470;-0.376;2024-01-06T15:08:35;5.30;;;1.70;;
79124;SDS011;68527;39.470;-0.376;2024-01-06T15:11:01;8.90;;;1.90;;
79124;SDS011;68527;39.470;-0.376;2024-01-06T15:13:29;6.10;;;1.80;;